sensor_id;sensor_type;location;lat;lon;timestamp;pressure;altitude;pressure_sealevel;temperature;humidity
55373;BME280;70018;47.838;16.490;2023-05-23T00:01:09;98904.88;;;11.20;73.32
55373;BME280;70018;47.838;16.490;2023-05-23T00:03:35;98908.03;;;11.22;72.66
55373;BME280;70018;47.838;16.490;2023-05-23T00:06:05;98904.47;;;11.18;72.50
55373;BME280;70018;47.838;16.490;2023-05-23T00:08:32;98896.16;;;11.18;72.84
55373;BME280;70018;47.838;16.490;2023-05-23T00:10:59;98893.16;;;10.98;72.92
55373;BME280;70018;47.838;16.490;2023-05-23T00:13:25;98897.53;;;10.96;73.46
55373;BME280;70018;47.838;16.490;2023-05-23T00:15:52;98887.06;;;11.14;72.81
55373;BME280;70018;47.838;16.490;2023-05-23T00:18:19;98889.09;;;11.10;73.42
55373;BME280;70018;47.838;16.490;2023-05-23T00:20:45;98890.88;;;10.90;73.77
55373;BME280;70018;47.838;16.490;2023-05-23T00:23:12;98891.31;;;10.85;73.71
55373;BME280;70018;47.838;16.490;2023-05-23T00:25:44;98891.69;;;10.87;74.09
55373;BME280;70018;47.838;16.490;2023-05-23T00:28:19;98882.91;;;10.92;73.84
55373;BME280;70018;47.838;16.490;2023-05-23T00:30:45;98886.88;;;10.91;73.22
55373;BME280;70018;47.838;16.490;2023-05-23T00:33:12;98890.44;;;10.95;73.22
55373;BME280;70018;47.838;16.490;2023-05-23T00:35:43;98891.69;;;10.87;72.79
55373;BME280;70018;47.838;16.490;2023-05-23T00:38:09;98897.97;;;10.91;73.00
55373;BME280;70018;47.838;16.490;2023-05-23T00:40:37;98888.94;;;11.24;72.37
55373;BME280;70018;47.838;16.490;2023-05-23T00:43:03;98892.28;;;11.46;71.88
55373;BME280;70018;47.838;16.490;2023-05-23T00:45:30;98893.81;;;11.54;71.55
55373;BME280;70018;47.838;16.490;2023-05-23T00:47:57;98891.31;;;11.63;71.34
55373;BME280;70018;47.838;16.490;2023-05-23T00:50:26;98889.34;;;11.63;70.92
55373;BME280;70018;47.838;16.490;2023-05-23T00:52:59;98896.56;;;11.57;71.26
55373;BME280;70018;47.838;16.490;2023-05-23T00:55:27;98896.94;;;11.59;70.55
55373;BME280;70018;47.838;16.490;2023-05-23T00:57:54;98895.13;;;11.42;71.39
55373;BME280;70018;47.838;16.490;2023-05-23T01:00:24;98894.81;;;11.33;71.74
55373;BME280;70018;47.838;16.490;2023-05-23T01:02:51;98894.06;;;11.29;71.81
55373;BME280;70018;47.838;16.490;2023-05-23T01:05:19;98893.38;;;11.18;72.10
55373;BME280;70018;47.838;16.490;2023-05-23T01:07:49;98886.31;;;11.10;71.85
55373;BME280;70018;47.838;16.490;2023-05-23T01:10:20;98891.53;;;11.04;72.20
55373;BME280;70018;47.838;16.490;2023-05-23T01:15:19;98884.22;;;11.21;71.47
55373;BME280;70018;47.838;16.490;2023-05-23T01:21:02;98890.00;;;11.00;72.17
55373;BME280;70018;47.838;16.490;2023-05-23T01:23:38;98893.31;;;10.81;71.98
55373;BME280;70018;47.838;16.490;2023-05-23T01:28:46;98891.28;;;10.26;73.41
55373;BME280;70018;47.838;16.490;2023-05-23T01:31:16;98890.00;;;10.41;73.46
55373;BME280;70018;47.838;16.490;2023-05-23T01:33:44;98883.63;;;10.55;73.05
55373;BME280;70018;47.838;16.490;2023-05-23T01:36:12;98881.78;;;10.27;73.46
55373;BME280;70018;47.838;16.490;2023-05-23T01:38:40;98878.75;;;10.04;74.06
55373;BME280;70018;47.838;16.490;2023-05-23T01:41:07;98882.72;;;9.96;73.99
55373;BME280;70018;47.838;16.490;2023-05-23T01:43:33;98877.59;;;9.91;74.55
55373;BME280;70018;47.838;16.490;2023-05-23T01:46:01;98872.19;;;9.70;75.10
55373;BME280;70018;47.838;16.490;2023-05-23T01:48:29;98868.69;;;9.52;75.55
55373;BME280;70018;47.838;16.490;2023-05-23T01:50:57;98877.81;;;9.42;75.60
55373;BME280;70018;47.838;16.490;2023-05-23T01:53:25;98875.00;;;9.49;75.98
55373;BME280;70018;47.838;16.490;2023-05-23T01:55:52;98870.28;;;9.46;76.16
55373;BME280;70018;47.838;16.490;2023-05-23T01:58:19;98865.53;;;9.43;76.14
55373;BME280;70018;47.838;16.490;2023-05-23T02:00:46;98858.81;;;9.30;76.23
55373;BME280;70018;47.838;16.490;2023-05-23T02:03:13;98867.13;;;9.26;76.55
55373;BME280;70018;47.838;16.490;2023-05-23T02:05:40;98855.28;;;9.26;76.97
55373;BME280;70018;47.838;16.490;2023-05-23T02:08:07;98867.94;;;9.23;76.83
55373;BME280;70018;47.838;16.490;2023-05-23T02:10:33;98860.81;;;9.18;76.92
55373;BME280;70018;47.838;16.490;2023-05-23T02:13:00;98861.63;;;9.08;77.45
55373;BME280;70018;47.838;16.490;2023-05-23T02:15:26;98858.47;;;8.99;77.49
55373;BME280;70018;47.838;16.490;2023-05-23T02:17:53;98859.69;;;8.98;77.66
55373;BME280;70018;47.838;16.490;2023-05-23T02:20:20;98864.03;;;8.99;77.66
55373;BME280;70018;47.838;16.490;2023-05-23T02:22:46;98858.88;;;9.01;77.86
55373;BME280;70018;47.838;16.490;2023-05-23T02:25:13;98860.06;;;9.00;77.91
55373;BME280;70018;47.838;16.490;2023-05-23T02:27:41;98853.34;;;8.94;77.98
55373;BME280;70018;47.838;16.490;2023-05-23T02:30:08;98854.97;;;8.88;78.64
55373;BME280;70018;47.838;16.490;2023-05-23T02:32:34;98864.84;;;8.93;77.96
55373;BME280;70018;47.838;16.490;2023-05-23T02:35:03;98851.38;;;8.91;77.96
55373;BME280;70018;47.838;16.490;2023-05-23T02:37:31;98852.94;;;8.89;78.21
55373;BME280;70018;47.838;16.490;2023-05-23T02:39:58;98854.13;;;8.91;79.61
55373;BME280;70018;47.838;16.490;2023-05-23T02:42:24;98850.19;;;8.89;79.71
55373;BME280;70018;47.838;16.490;2023-05-23T02:44:51;98848.63;;;8.88;79.87
55373;BME280;70018;47.838;16.490;2023-05-23T02:47:17;98838.75;;;8.73;79.09
55373;BME280;70018;47.838;16.490;2023-05-23T02:49:44;98855.72;;;8.71;78.95
55373;BME280;70018;47.838;16.490;2023-05-23T02:52:12;98847.44;;;8.64;79.23
55373;BME280;70018;47.838;16.490;2023-05-23T02:54:39;98850.63;;;8.55;79.78
55373;BME280;70018;47.838;16.490;2023-05-23T02:57:07;98853.78;;;8.50;79.88
55373;BME280;70018;47.838;16.490;2023-05-23T02:59:34;98845.88;;;8.45;79.88
55373;BME280;70018;47.838;16.490;2023-05-23T03:02:00;98850.59;;;8.52;81.46
55373;BME280;70018;47.838;16.490;2023-05-23T03:04:27;98849.03;;;8.65;83.30
55373;BME280;70018;47.838;16.490;2023-05-23T03:06:54;98846.25;;;8.69;84.22
55373;BME280;70018;47.838;16.490;2023-05-23T03:09:21;98843.09;;;8.67;83.67
55373;BME280;70018;47.838;16.490;2023-05-23T03:11:48;98844.28;;;8.69;84.87
55373;BME280;70018;47.838;16.490;2023-05-23T03:14:15;98834.78;;;8.67;85.44
55373;BME280;70018;47.838;16.490;2023-05-23T03:16:41;98844.28;;;8.69;85.76
55373;BME280;70018;47.838;16.490;2023-05-23T03:19:08;98832.44;;;8.65;85.55
55373;BME280;70018;47.838;16.490;2023-05-23T03:21:35;98835.59;;;8.67;84.75
55373;BME280;70018;47.838;16.490;2023-05-23T03:24:01;98837.16;;;8.65;83.68
55373;BME280;70018;47.838;16.490;2023-05-23T03:26:28;98841.13;;;8.71;84.72
55373;BME280;70018;47.838;16.490;2023-05-23T03:28:55;98838.34;;;8.78;85.04
55373;BME280;70018;47.838;16.490;2023-05-23T03:31:22;98845.88;;;8.81;84.98
55373;BME280;70018;47.838;16.490;2023-05-23T03:33:49;98843.47;;;8.86;85.51
55373;BME280;70018;47.838;16.490;2023-05-23T03:36:16;98839.13;;;8.92;84.67
55373;BME280;70018;47.838;16.490;2023-05-23T03:38:42;98839.91;;;8.96;84.67
55373;BME280;70018;47.838;16.490;2023-05-23T03:41:09;98837.91;;;8.97;83.12
55373;BME280;70018;47.838;16.490;2023-05-23T03:43:36;98843.47;;;9.00;82.98
55373;BME280;70018;47.838;16.490;2023-05-23T03:46:03;98848.19;;;9.07;82.53
55373;BME280;70018;47.838;16.490;2023-05-23T03:48:29;98854.88;;;9.16;82.27
55373;BME280;70018;47.838;16.490;2023-05-23T03:50:56;98857.25;;;9.21;82.32
55373;BME280;70018;47.838;16.490;2023-05-23T03:53:22;98862.78;;;9.25;82.07
55373;BME280;70018;47.838;16.490;2023-05-23T03:55:49;98856.84;;;9.34;81.75
55373;BME280;70018;47.838;16.490;2023-05-23T03:58:16;98867.13;;;9.44;81.68
55373;BME280;70018;47.838;16.490;2023-05-23T04:00:42;98862.31;;;9.58;81.19
55373;BME280;70018;47.838;16.490;2023-05-23T04:03:09;98865.41;;;9.74;80.87
55373;BME280;70018;47.838;16.490;2023-05-23T04:05:37;98867.34;;;9.84;80.76
55373;BME280;70018;47.838;16.490;2023-05-23T04:08:03;98873.66;;;9.92;80.45
55373;BME280;70018;47.838;16.490;2023-05-23T04:10:30;98879.53;;;10.01;80.43
55373;BME280;70018;47.838;16.490;2023-05-23T04:12:57;98886.63;;;10.09;80.02
55373;BME280;70018;47.838;16.490;2023-05-23T04:15:24;98885.78;;;10.16;80.28
55373;BME280;70018;47.838;16.490;2023-05-23T04:17:51;98889.31;;;10.23;80.58
55373;BME280;70018;47.838;16.490;2023-05-23T04:20:17;98892.06;;;10.30;80.37
55373;BME280;70018;47.838;16.490;2023-05-23T04:22:44;98887.69;;;10.33;80.37
55373;BME280;70018;47.838;16.490;2023-05-23T04:25:11;98892.41;;;10.36;80.15
55373;BME280;70018;47.838;16.490;2023-05-23T04:27:38;98880.88;;;10.41;80.33
55373;BME280;70018;47.838;16.490;2023-05-23T04:30:07;98894.38;;;10.42;80.48
55373;BME280;70018;47.838;16.490;2023-05-23T04:32:36;98885.63;;;10.44;80.79
55373;BME280;70018;47.838;16.490;2023-05-23T04:35:03;98886.03;;;10.42;80.53
55373;BME280;70018;47.838;16.490;2023-05-23T04:37:30;98891.56;;;10.50;80.75
55373;BME280;70018;47.838;16.490;2023-05-23T04:39:58;98881.66;;;10.52;80.40
55373;BME280;70018;47.838;16.490;2023-05-23T04:42:29;98883.19;;;10.57;80.86
55373;BME280;70018;47.838;16.490;2023-05-23T04:44:55;98885.13;;;10.63;80.42
55373;BME280;70018;47.838;16.490;2023-05-23T04:47:23;98879.91;;;10.69;80.43
55373;BME280;70018;47.838;16.490;2023-05-23T04:49:54;98879.91;;;10.69;80.49
55373;BME280;70018;47.838;16.490;2023-05-23T04:52:21;98884.66;;;10.72;80.62
55373;BME280;70018;47.838;16.490;2023-05-23T04:54:48;98885.84;;;10.71;80.68
55373;BME280;70018;47.838;16.490;2023-05-23T04:57:15;98890.22;;;10.72;81.04
55373;BME280;70018;47.838;16.490;2023-05-23T04:59:42;98892.56;;;10.77;80.40
55373;BME280;70018;47.838;16.490;2023-05-23T05:02:09;98887.72;;;10.84;80.48
55373;BME280;70018;47.838;16.490;2023-05-23T05:04:35;98886.94;;;10.84;80.47
55373;BME280;70018;47.838;16.490;2023-05-23T05:07:02;98886.50;;;10.89;80.23
55373;BME280;70018;47.838;16.490;2023-05-23T05:09:29;98890.81;;;10.97;79.78
55373;BME280;70018;47.838;16.490;2023-05-23T05:11:57;98904.91;;;11.13;79.44
55373;BME280;70018;47.838;16.490;2023-05-23T05:14:25;98896.19;;;11.15;79.73
55373;BME280;70018;47.838;16.490;2023-05-23T05:16:52;98892.19;;;11.19;79.52
55373;BME280;70018;47.838;16.490;2023-05-23T05:19:23;98899.91;;;11.38;79.48
55373;BME280;70018;47.838;16.490;2023-05-23T05:21:50;98899.72;;;11.59;78.35
55373;BME280;70018;47.838;16.490;2023-05-23T05:24:16;98891.22;;;11.73;77.92
55373;BME280;70018;47.838;16.490;2023-05-23T05:26:43;98890.56;;;11.93;77.82
55373;BME280;70018;47.838;16.490;2023-05-23T05:29:10;98892.72;;;12.12;77.00
55373;BME280;70018;47.838;16.490;2023-05-23T05:31:36;98895.75;;;12.21;76.98
55373;BME280;70018;47.838;16.490;2023-05-23T05:34:03;98890.28;;;12.44;76.44
55373;BME280;70018;47.838;16.490;2023-05-23T05:36:30;98892.59;;;12.49;76.39
55373;BME280;70018;47.838;16.490;2023-05-23T05:38:57;98896.00;;;12.60;76.18
55373;BME280;70018;47.838;16.490;2023-05-23T05:41:24;98892.19;;;12.77;75.93
55373;BME280;70018;47.838;16.490;2023-05-23T05:43:52;98891.19;;;12.87;75.29
55373;BME280;70018;47.838;16.490;2023-05-23T05:46:19;98889.03;;;12.98;75.30
55373;BME280;70018;47.838;16.490;2023-05-23T05:48:46;98893.50;;;12.92;75.17
55373;BME280;70018;47.838;16.490;2023-05-23T05:51:12;98890.16;;;12.78;75.73
55373;BME280;70018;47.838;16.490;2023-05-23T05:53:39;98899.38;;;12.98;75.17
55373;BME280;70018;47.838;16.490;2023-05-23T05:56:06;98888.66;;;13.20;74.53
55373;BME280;70018;47.838;16.490;2023-05-23T05:58:34;98894.03;;;13.30;74.20
55373;BME280;70018;47.838;16.490;2023-05-23T06:01:01;98896.13;;;13.46;73.56
55373;BME280;70018;47.838;16.490;2023-05-23T06:03:28;98899.66;;;13.50;73.44
55373;BME280;70018;47.838;16.490;2023-05-23T06:05:54;98891.09;;;13.60;73.12
55373;BME280;70018;47.838;16.490;2023-05-23T06:08:21;98893.84;;;13.84;72.52
55373;BME280;70018;47.838;16.490;2023-05-23T06:10:48;98891.81;;;14.04;72.11
55373;BME280;70018;47.838;16.490;2023-05-23T06:13:14;98894.00;;;14.12;71.74
55373;BME280;70018;47.838;16.490;2023-05-23T06:15:41;98896.53;;;14.26;71.32
55373;BME280;70018;47.838;16.490;2023-05-23T06:18:08;98897.28;;;14.47;70.63
55373;BME280;70018;47.838;16.490;2023-05-23T06:20:35;98896.88;;;14.64;70.48
55373;BME280;70018;47.838;16.490;2023-05-23T06:23:02;98896.34;;;14.85;70.05
55373;BME280;70018;47.838;16.490;2023-05-23T06:25:31;98889.47;;;14.74;70.34
55373;BME280;70018;47.838;16.490;2023-05-23T06:27:57;98892.59;;;14.76;70.14
55373;BME280;70018;47.838;16.490;2023-05-23T06:30:24;98895.75;;;14.94;69.68
55373;BME280;70018;47.838;16.490;2023-05-23T06:32:51;98898.19;;;15.08;69.48
55373;BME280;70018;47.838;16.490;2023-05-23T06:35:18;98896.44;;;15.14;69.15
55373;BME280;70018;47.838;16.490;2023-05-23T06:37:44;98899.44;;;15.23;68.66
55373;BME280;70018;47.838;16.490;2023-05-23T06:40:11;98895.03;;;15.38;68.39
55373;BME280;70018;47.838;16.490;2023-05-23T06:42:40;98897.97;;;15.47;68.24
55373;BME280;70018;47.838;16.490;2023-05-23T06:45:07;98892.97;;;15.55;67.85
55373;BME280;70018;47.838;16.490;2023-05-23T06:47:34;98895.22;;;15.60;67.79
55373;BME280;70018;47.838;16.490;2023-05-23T06:50:01;98888.91;;;15.72;67.30
55373;BME280;70018;47.838;16.490;2023-05-23T06:52:28;98892.38;;;15.47;68.39
55373;BME280;70018;47.838;16.490;2023-05-23T06:54:54;98880.81;;;15.62;67.68
55373;BME280;70018;47.838;16.490;2023-05-23T06:57:21;98867.97;;;15.77;67.34
55373;BME280;70018;47.838;16.490;2023-05-23T06:59:48;98886.41;;;16.03;66.76
55373;BME280;70018;47.838;16.490;2023-05-23T07:02:14;98887.03;;;16.10;66.41
55373;BME280;70018;47.838;16.490;2023-05-23T07:04:41;98885.94;;;16.33;66.02
55373;BME280;70018;47.838;16.490;2023-05-23T07:07:07;98885.25;;;16.54;65.51
55373;BME280;70018;47.838;16.490;2023-05-23T07:09:34;98884.59;;;16.63;65.20
55373;BME280;70018;47.838;16.490;2023-05-23T07:12:00;98882.34;;;16.70;64.93
55373;BME280;70018;47.838;16.490;2023-05-23T07:14:27;98881.31;;;16.77;64.78
55373;BME280;70018;47.838;16.490;2023-05-23T07:16:54;98882.91;;;16.78;64.55
55373;BME280;70018;47.838;16.490;2023-05-23T07:19:20;98885.25;;;16.67;64.65
55373;BME280;70018;47.838;16.490;2023-05-23T07:21:47;98883.34;;;16.89;64.28
55373;BME280;70018;47.838;16.490;2023-05-23T07:24:14;98872.50;;;16.91;63.86
55373;BME280;70018;47.838;16.490;2023-05-23T07:26:40;98883.22;;;17.18;63.51
55373;BME280;70018;47.838;16.490;2023-05-23T07:29:07;98873.72;;;17.37;62.73
55373;BME280;70018;47.838;16.490;2023-05-23T07:31:34;98872.84;;;17.62;62.42
55373;BME280;70018;47.838;16.490;2023-05-23T07:34:00;98870.13;;;17.71;62.17
55373;BME280;70018;47.838;16.490;2023-05-23T07:36:28;98874.75;;;17.86;61.86
55373;BME280;70018;47.838;16.490;2023-05-23T07:39:00;98877.13;;;17.88;61.32
55373;BME280;70018;47.838;16.490;2023-05-23T07:41:27;98874.63;;;17.90;61.33
55373;BME280;70018;47.838;16.490;2023-05-23T07:43:53;98876.72;;;17.98;61.46
55373;BME280;70018;47.838;16.490;2023-05-23T07:46:20;98876.53;;;18.24;60.68
55373;BME280;70018;47.838;16.490;2023-05-23T07:48:48;98878.09;;;18.16;60.66
55373;BME280;70018;47.838;16.490;2023-05-23T07:51:14;98873.69;;;18.15;60.86
55373;BME280;70018;47.838;16.490;2023-05-23T07:53:46;98875.59;;;18.18;60.93
55373;BME280;70018;47.838;16.490;2023-05-23T07:56:13;98878.28;;;18.52;60.35
55373;BME280;70018;47.838;16.490;2023-05-23T07:58:40;98876.84;;;18.78;59.63
55373;BME280;70018;47.838;16.490;2023-05-23T08:01:06;98869.50;;;18.81;59.27
55373;BME280;70018;47.838;16.490;2023-05-23T08:03:33;98871.41;;;18.93;58.80
55373;BME280;70018;47.838;16.490;2023-05-23T08:05:59;98877.78;;;18.84;58.98
55373;BME280;70018;47.838;16.490;2023-05-23T08:08:26;98876.66;;;18.73;58.59
55373;BME280;70018;47.838;16.490;2023-05-23T08:10:53;98867.50;;;18.90;58.36
55373;BME280;70018;47.838;16.490;2023-05-23T08:13:19;98870.69;;;19.10;58.10
55373;BME280;70018;47.838;16.490;2023-05-23T08:15:46;98878.03;;;19.17;58.31
55373;BME280;70018;47.838;16.490;2023-05-23T08:18:12;98871.31;;;19.23;57.83
55373;BME280;70018;47.838;16.490;2023-05-23T08:20:39;98873.84;;;19.40;58.02
55373;BME280;70018;47.838;16.490;2023-05-23T08:23:06;98868.69;;;19.47;57.56
55373;BME280;70018;47.838;16.490;2023-05-23T08:25:33;98865.41;;;19.67;57.36
55373;BME280;70018;47.838;16.490;2023-05-23T08:28:00;98867.28;;;19.79;57.62
55373;BME280;70018;47.838;16.490;2023-05-23T08:30:27;98856.34;;;19.90;57.01
55373;BME280;70018;47.838;16.490;2023-05-23T08:32:55;98859.00;;;19.84;57.22
55373;BME280;70018;47.838;16.490;2023-05-23T08:35:22;98866.66;;;19.93;56.92
55373;BME280;70018;47.838;16.490;2023-05-23T08:37:50;98869.13;;;20.09;56.85
55373;BME280;70018;47.838;16.490;2023-05-23T08:40:19;98869.28;;;20.15;56.56
55373;BME280;70018;47.838;16.490;2023-05-23T08:42:48;98872.47;;;20.40;56.20
55373;BME280;70018;47.838;16.490;2023-05-23T08:45:15;98876.06;;;20.59;55.83
55373;BME280;70018;47.838;16.490;2023-05-23T08:47:43;98870.56;;;20.65;55.18
55373;BME280;70018;47.838;16.490;2023-05-23T08:50:13;98870.72;;;20.61;55.06
55373;BME280;70018;47.838;16.490;2023-05-23T08:52:53;98863.72;;;20.38;55.35
55373;BME280;70018;47.838;16.490;2023-05-23T08:55:26;98875.56;;;20.60;55.55
55373;BME280;70018;47.838;16.490;2023-05-23T08:57:54;98869.56;;;20.77;55.02
55373;BME280;70018;47.838;16.490;2023-05-23T09:00:22;98873.81;;;20.96;54.40
55373;BME280;70018;47.838;16.490;2023-05-23T09:02:50;98880.41;;;20.93;54.42
55373;BME280;70018;47.838;16.490;2023-05-23T09:05:18;98870.78;;;21.08;54.24
55373;BME280;70018;47.838;16.490;2023-05-23T09:07:45;98869.53;;;21.09;54.12
55373;BME280;70018;47.838;16.490;2023-05-23T09:10:18;98860.56;;;21.20;54.21
55373;BME280;70018;47.838;16.490;2023-05-23T09:12:48;98865.13;;;21.56;53.27
55373;BME280;70018;47.838;16.490;2023-05-23T09:15:15;98872.75;;;21.64;53.47
55373;BME280;70018;47.838;16.490;2023-05-23T09:17:43;98868.91;;;21.76;53.16
55373;BME280;70018;47.838;16.490;2023-05-23T09:20:14;98867.75;;;21.83;52.74
55373;BME280;70018;47.838;16.490;2023-05-23T09:22:46;98863.66;;;21.84;52.42
55373;BME280;70018;47.838;16.490;2023-05-23T09:25:14;98861.22;;;21.77;52.55
55373;BME280;70018;47.838;16.490;2023-05-23T09:27:41;98857.63;;;21.91;51.96
55373;BME280;70018;47.838;16.490;2023-05-23T09:30:12;98857.56;;;22.15;51.69
55373;BME280;70018;47.838;16.490;2023-05-23T09:32:39;98859.19;;;22.36;51.43
55373;BME280;70018;47.838;16.490;2023-05-23T09:35:06;98868.59;;;22.42;51.42
55373;BME280;70018;47.838;16.490;2023-05-23T09:37:42;98875.22;;;22.39;51.28
55373;BME280;70018;47.838;16.490;2023-05-23T09:40:12;98867.78;;;22.27;51.25
55373;BME280;70018;47.838;16.490;2023-05-23T09:42:44;98859.19;;;22.36;50.98
55373;BME280;70018;47.838;16.490;2023-05-23T09:45:12;98861.53;;;22.23;50.52
55373;BME280;70018;47.838;16.490;2023-05-23T09:47:51;98866.09;;;22.06;50.68
55373;BME280;70018;47.838;16.490;2023-05-23T09:50:18;98861.44;;;22.17;50.60
55373;BME280;70018;47.838;16.490;2023-05-23T09:52:45;98872.44;;;22.30;50.32
55373;BME280;70018;47.838;16.490;2023-05-23T09:55:12;98869.09;;;22.75;48.91
55373;BME280;70018;47.838;16.490;2023-05-23T09:57:41;98867.25;;;22.72;49.34
55373;BME280;70018;47.838;16.490;2023-05-23T10:00:09;98873.16;;;23.03;48.33
55373;BME280;70018;47.838;16.490;2023-05-23T10:05:40;98868.50;;;23.41;48.11
55373;BME280;70018;47.838;16.490;2023-05-23T10:08:13;98871.75;;;23.54;47.61
55373;BME280;70018;47.838;16.490;2023-05-23T10:13:43;98860.84;;;23.47;47.31
55373;BME280;70018;47.838;16.490;2023-05-23T10:16:25;98860.69;;;23.56;46.58
55373;BME280;70018;47.838;16.490;2023-05-23T10:18:56;98855.59;;;23.40;47.33
55373;BME280;70018;47.838;16.490;2023-05-23T10:21:28;98849.63;;;23.58;46.82
55373;BME280;70018;47.838;16.490;2023-05-23T10:23:58;98849.22;;;23.65;46.38
55373;BME280;70018;47.838;16.490;2023-05-23T10:26:26;98844.50;;;23.16;46.61
55373;BME280;70018;47.838;16.490;2023-05-23T10:28:54;98845.81;;;23.00;46.52
55373;BME280;70018;47.838;16.490;2023-05-23T10:31:23;98846.44;;;22.75;46.80
55373;BME280;70018;47.838;16.490;2023-05-23T10:34:07;98837.53;;;22.82;46.97
55373;BME280;70018;47.838;16.490;2023-05-23T10:36:47;98837.22;;;23.09;46.84
55373;BME280;70018;47.838;16.490;2023-05-23T10:39:30;98829.91;;;23.43;46.50
55373;BME280;70018;47.838;16.490;2023-05-23T10:42:01;98830.50;;;23.73;45.77
55373;BME280;70018;47.838;16.490;2023-05-23T10:44:29;98835.25;;;23.82;45.78
55373;BME280;70018;47.838;16.490;2023-05-23T10:46:58;98837.34;;;24.12;44.81
55373;BME280;70018;47.838;16.490;2023-05-23T10:52:09;98831.53;;;24.21;44.36
55373;BME280;70018;47.838;16.490;2023-05-23T10:54:44;98832.84;;;24.00;44.65
55373;BME280;70018;47.838;16.490;2023-05-23T10:57:15;98818.22;;;24.07;43.88
55373;BME280;70018;47.838;16.490;2023-05-23T10:59:44;98805.34;;;24.38;43.53
55373;BME280;70018;47.838;16.490;2023-05-23T11:02:15;98804.91;;;24.81;42.54
55373;BME280;70018;47.838;16.490;2023-05-23T11:04:42;98805.00;;;24.98;42.26
55373;BME280;70018;47.838;16.490;2023-05-23T11:07:29;98797.44;;;24.84;42.64
55373;BME280;70018;47.838;16.490;2023-05-23T11:10:12;98799.72;;;25.28;41.84
55373;BME280;70018;47.838;16.490;2023-05-23T11:12:43;98801.19;;;25.12;41.89
55373;BME280;70018;47.838;16.490;2023-05-23T11:17:53;98788.56;;;25.13;41.38
55373;BME280;70018;47.838;16.490;2023-05-23T11:20:23;98792.75;;;25.29;41.50
55373;BME280;70018;47.838;16.490;2023-05-23T11:23:06;98797.91;;;25.30;41.54
55373;BME280;70018;47.838;16.490;2023-05-23T11:26:02;98795.66;;;25.40;40.88
55373;BME280;70018;47.838;16.490;2023-05-23T11:28:29;98807.13;;;25.84;40.67
55373;BME280;70018;47.838;16.490;2023-05-23T11:30:56;98794.00;;;26.09;39.83
55373;BME280;70018;47.838;16.490;2023-05-23T11:33:22;98796.59;;;26.18;39.44
55373;BME280;70018;47.838;16.490;2023-05-23T11:35:49;98799.44;;;26.18;39.64
55373;BME280;70018;47.838;16.490;2023-05-23T11:38:17;98790.63;;;26.33;39.56
55373;BME280;70018;47.838;16.490;2023-05-23T11:40:45;98784.69;;;26.47;38.80
55373;BME280;70018;47.838;16.490;2023-05-23T11:43:16;98773.31;;;26.47;39.05
55373;BME280;70018;47.838;16.490;2023-05-23T11:45:43;98781.81;;;26.42;38.92
55373;BME280;70018;47.838;16.490;2023-05-23T11:48:15;98772.53;;;26.63;38.49
55373;BME280;70018;47.838;16.490;2023-05-23T11:50:49;98776.63;;;26.73;37.99
55373;BME280;70018;47.838;16.490;2023-05-23T11:53:17;98774.59;;;26.24;39.08
55373;BME280;70018;47.838;16.490;2023-05-23T11:55:55;98778.97;;;26.14;39.30
55373;BME280;70018;47.838;16.490;2023-05-23T11:58:33;98784.34;;;25.68;39.33
55373;BME280;70018;47.838;16.490;2023-05-23T12:01:10;98778.16;;;25.64;39.31
55373;BME280;70018;47.838;16.490;2023-05-23T12:03:49;98766.59;;;26.22;38.59
55373;BME280;70018;47.838;16.490;2023-05-23T12:06:20;98770.97;;;26.57;37.69
55373;BME280;70018;47.838;16.490;2023-05-23T12:08:50;98760.06;;;26.72;37.76
55373;BME280;70018;47.838;16.490;2023-05-23T12:11:17;98753.47;;;27.16;37.18
55373;BME280;70018;47.838;16.490;2023-05-23T12:13:44;98752.94;;;27.12;37.36
55373;BME280;70018;47.838;16.490;2023-05-23T12:16:12;98746.53;;;27.00;37.22
55373;BME280;70018;47.838;16.490;2023-05-23T12:18:41;98736.47;;;26.82;37.12
55373;BME280;70018;47.838;16.490;2023-05-23T12:21:09;98736.84;;;27.20;36.59
55373;BME280;70018;47.838;16.490;2023-05-23T12:23:36;98737.22;;;27.46;36.04
55373;BME280;70018;47.838;16.490;2023-05-23T12:26:04;98739.50;;;27.59;35.85
55373;BME280;70018;47.838;16.490;2023-05-23T12:28:37;98724.09;;;27.78;36.10
55373;BME280;70018;47.838;16.490;2023-05-23T12:31:36;98701.47;;;27.45;35.72
55373;BME280;70018;47.838;16.490;2023-05-23T12:34:04;98704.72;;;27.19;36.05
55373;BME280;70018;47.838;16.490;2023-05-23T12:36:30;98684.53;;;26.54;36.56
55373;BME280;70018;47.838;16.490;2023-05-23T12:39:02;98677.34;;;25.87;37.57
55373;BME280;70018;47.838;16.490;2023-05-23T12:41:29;98681.13;;;25.06;38.75
55373;BME280;70018;47.838;16.490;2023-05-23T12:43:56;98688.53;;;24.45;39.84
55373;BME280;70018;47.838;16.490;2023-05-23T12:46:23;98695.47;;;24.01;40.69
55373;BME280;70018;47.838;16.490;2023-05-23T12:48:51;98703.06;;;23.58;41.41
55373;BME280;70018;47.838;16.490;2023-05-23T12:51:18;98709.50;;;23.07;41.77
55373;BME280;70018;47.838;16.490;2023-05-23T12:53:45;98716.28;;;22.75;41.03
55373;BME280;70018;47.838;16.490;2023-05-23T12:56:12;98724.50;;;22.73;41.74
55373;BME280;70018;47.838;16.490;2023-05-23T12:58:38;98728.28;;;22.50;42.53
55373;BME280;70018;47.838;16.490;2023-05-23T13:01:05;98725.59;;;22.41;43.26
55373;BME280;70018;47.838;16.490;2023-05-23T13:03:32;98720.31;;;22.34;43.62
55373;BME280;70018;47.838;16.490;2023-05-23T13:05:58;98721.63;;;22.18;44.03
55373;BME280;70018;47.838;16.490;2023-05-23T13:08:25;98724.66;;;22.00;44.87
55373;BME280;70018;47.838;16.490;2023-05-23T13:10:52;98752.94;;;21.71;45.54
55373;BME280;70018;47.838;16.490;2023-05-23T13:13:19;98780.78;;;20.87;45.91
55373;BME280;70018;47.838;16.490;2023-05-23T13:15:46;98777.00;;;19.82;47.01
55373;BME280;70018;47.838;16.490;2023-05-23T13:18:16;98777.84;;;19.38;47.47